Time;durP1;ratioP1;P1;durP2;ratioP2;P2;SDS_P1;SDS_P2;PMS_P1;PMS_P2;Temp;Humidity;BMP_temperature;BMP_pressure;BME280_temperature;BME280_humidity;BME280_pressure;Samples;Min_cycle;Max_cycle;Signal;HPM_P1;HPM_P2
2022/01/17 00:02:35;;;;;;;1.55;0.85;;;;;;;6.36;100.00;101660.44;5014933;28;20065;-59
2022/01/17 00:05:38;;;;;;;0.10;0.10;;;;;;;6.31;100.00;101663.63;5015198;28;20041;-59
2022/01/17 00:08:43;;;;;;;1.40;0.32;;;;;;;6.29;100.00;101666.00;5014621;28;20053;-59
2022/01/17 00:11:48;;;;;;;0.25;0.25;;;;;;;6.26;100.00;101664.06;5015319;28;20061;-59
2022/01/17 00:14:55;;;;;;;4.95;0.57;;;;;;;6.32;100.00;101662.44;5014946;28;20053;-60
2022/01/17 00:21:18;;;;;;;16.35;1.13;;;;;;;6.52;100.00;101658.78;5014865;28;20061;-59
2022/01/17 00:24:21;;;;;;;1.65;0.43;;;;;;;6.49;100.00;101664.34;5015208;28;20045;-59
2022/01/17 00:27:25;;;;;;;0.25;0.25;;;;;;;6.50;100.00;101674.19;5028540;28;20056;-59
2022/01/17 00:30:29;;;;;;;0.52;0.52;;;;;;;6.43;100.00;101669.50;5034768;28;20048;-59
2022/01/17 00:33:33;;;;;;;5.97;0.57;;;;;;;6.44;100.00;101671.06;5034246;28;20374;-59
2022/01/17 00:36:36;;;;;;;0.25;0.13;;;;;;;6.53;100.00;101662.34;5005347;28;20057;-59
2022/01/17 00:39:40;;;;;;;0.10;0.10;;;;;;;6.58;100.00;101664.69;4994842;28;20069;-59
2022/01/17 00:42:43;;;;;;;1.33;0.38;;;;;;;6.70;100.00;101672.50;4993788;28;20052;-59
2022/01/17 00:45:46;;;;;;;0.75;0.75;;;;;;;6.83;100.00;101681.94;5003425;28;20049;-59
2022/01/17 00:48:51;;;;;;;2.03;0.45;;;;;;;6.92;100.00;101685.03;5013485;28;20064;-59
2022/01/17 00:51:54;;;;;;;0.10;0.10;;;;;;;7.04;100.00;101684.53;5013439;28;20057;-60
2022/01/17 00:54:58;;;;;;;11.48;1.20;;;;;;;7.03;100.00;101680.22;5014147;28;20045;-59
2022/01/17 00:58:02;;;;;;;1.55;0.73;;;;;;;7.04;100.00;101673.47;5014172;28;20061;-59
2022/01/17 01:01:05;;;;;;;3.22;0.28;;;;;;;7.11;100.00;101687.25;5013569;28;20049;-60
2022/01/17 01:04:09;;;;;;;0.43;0.43;;;;;;;7.21;100.00;101683.63;5014224;28;20517;-59
2022/01/17 01:07:12;;;;;;;0.10;0.10;;;;;;;7.28;100.00;101691.88;5014040;28;20057;-59
2022/01/17 01:10:16;;;;;;;2.83;0.47;;;;;;;7.23;100.00;101692.34;5014096;28;20053;-59
2022/01/17 01:13:23;;;;;;;5.18;0.57;;;;;;;7.22;100.00;101699.06;5013528;28;20049;-59
2022/01/17 01:16:34;;;;;;;5.38;0.73;;;;;;;7.35;100.00;101683.50;4999269;28;20077;-59
2022/01/17 01:19:42;;;;;;;0.10;0.10;;;;;;;7.28;100.00;101689.09;4993878;28;20054;-60
2022/01/17 01:29:29;;;;;;;0.20;0.20;;;;;;;7.47;100.00;101685.00;5033667;28;19913;-59
2022/01/17 01:32:40;;;;;;;27.80;1.05;;;;;;;7.55;100.00;101681.75;5033219;28;20119;-59
2022/01/17 01:35:46;;;;;;;0.15;0.15;;;;;;;7.58;100.00;101692.00;5023513;28;20049;-59
2022/01/17 01:38:50;;;;;;;0.88;0.28;;;;;;;7.72;100.00;101698.63;5013256;28;20057;-59
2022/01/17 01:41:53;;;;;;;0.20;0.10;;;;;;;7.81;100.00;101699.72;5013523;28;20061;-59
2022/01/17 01:44:56;;;;;;;0.10;0.10;;;;;;;7.93;100.00;101706.72;5013157;28;20117;-60
2022/01/17 01:47:59;;;;;;;0.68;0.68;;;;;;;8.03;100.00;101716.94;5013872;28;20056;-60
2022/01/17 01:51:03;;;;;;;0.10;0.08;;;;;;;8.13;100.00;101721.56;5013076;28;20056;-59
2022/01/17 01:54:08;;;;;;;0.52;0.52;;;;;;;8.10;100.00;101727.97;5013175;28;20049;-59
2022/01/17 01:57:12;;;;;;;0.20;0.20;;;;;;;8.24;100.00;101733.34;4993182;28;20061;-59
2022/01/17 02:00:17;;;;;;;0.40;0.20;;;;;;;8.38;100.00;101733.97;4993679;28;20053;-60
2022/01/17 02:03:20;;;;;;;20.17;0.43;;;;;;;8.45;100.00;101723.97;4993178;28;20046;-59
2022/01/17 02:06:24;;;;;;;0.10;0.10;;;;;;;8.44;100.00;101720.44;5008298;28;20406;-59
2022/01/17 02:09:27;;;;;;;3.15;0.38;;;;;;;8.45;100.00;101721.22;5013034;28;20502;-60
2022/01/17 02:12:32;;;;;;;0.10;0.00;;;;;;;8.46;100.00;101723.59;5012929;28;20053;-59
2022/01/17 02:15:37;;;;;;;1.00;0.20;;;;;;;8.42;100.00;101722.06;5019008;28;20406;-59
2022/01/17 02:18:43;;;;;;;0.30;0.20;;;;;;;8.42;100.00;101719.28;5031814;28;20048;-59
2022/01/17 02:21:49;;;;;;;0.10;0.10;;;;;;;8.40;100.00;101714.16;5032318;28;20418;-60
2022/01/17 02:24:53;;;;;;;3.40;0.80;;;;;;;8.34;100.00;101710.25;5030263;28;20056;-60
2022/01/17 02:27:56;;;;;;;0.55;0.55;;;;;;;8.30;100.00;101728.94;5031085;28;20053;-59
2022/01/17 02:31:01;;;;;;;0.90;0.45;;;;;;;8.38;100.00;101711.78;5031508;28;20056;-59
2022/01/17 02:34:04;;;;;;;0.10;0.10;;;;;;;8.44;100.00;101720.44;5031884;28;20052;-59
2022/01/17 02:37:09;;;;;;;0.35;0.35;;;;;;;8.48;100.00;101729.50;4991973;28;20100;-59
2022/01/17 02:40:14;;;;;;;0.95;0.50;;;;;;;8.53;100.00;101740.16;4993317;28;20065;-60
2022/01/17 02:43:20;;;;;;;0.10;0.10;;;;;;;8.56;100.00;101733.75;4993241;28;20053;-59
2022/01/17 02:46:27;;;;;;;1.55;0.82;;;;;;;8.58;100.00;101736.91;5006744;28;20074;-59
2022/01/17 02:49:30;;;;;;;2.50;0.57;;;;;;;8.60;100.00;101737.28;5012369;28;20048;-59
2022/01/17 02:52:34;;;;;;;17.70;0.47;;;;;;;8.60;100.00;101731.72;5012416;28;20052;-60
2022/01/17 02:55:54;;;;;;;2.40;0.40;;;;;;;8.60;100.00;101740.06;5019856;28;20052;-59
2022/01/17 02:58:57;;;;;;;1.85;0.40;;;;;;;8.57;100.00;101740.91;5031928;28;20072;-59
2022/01/17 03:02:03;;;;;;;0.30;0.20;;;;;;;8.53;100.00;101745.72;5032004;28;20052;-59
2022/01/17 03:05:09;;;;;;;0.20;0.20;;;;;;;8.53;100.00;101751.28;5025692;28;20069;-59
2022/01/17 03:08:12;;;;;;;0.65;0.52;;;;;;;8.57;100.00;101751.22;4996351;28;20061;-60
2022/01/17 03:11:18;;;;;;;1.50;0.20;;;;;;;8.60;100.00;101756.72;4996505;28;20049;-59
2022/01/17 03:14:22;;;;;;;0.10;0.10;;;;;;;8.48;100.00;101754.50;4995947;28;20057;-59
2022/01/17 03:17:25;;;;;;;0.68;0.57;;;;;;;8.42;100.00;101756.16;4996707;28;20066;-60
2022/01/17 03:20:29;;;;;;;0.20;0.20;;;;;;;8.42;100.00;101767.28;4996574;28;20065;-59
2022/01/17 03:23:33;;;;;;;1.83;0.22;;;;;;;8.39;100.00;101779.19;4996580;28;20057;-59
2022/01/17 03:26:36;;;;;;;0.10;0.10;;;;;;;8.40;100.00;101780.78;5019103;28;20056;-59
2022/01/17 03:29:40;;;;;;;1.48;0.40;;;;;;;8.46;100.00;101773.56;5035693;28;20048;-59
2022/01/17 03:32:43;;;;;;;0.10;0.10;;;;;;;8.48;100.00;101782.25;5035687;28;20056;-59
2022/01/17 03:35:47;;;;;;;0.10;0.10;;;;;;;8.44;100.00;101787.06;5017605;28;20057;-59
2022/01/17 03:38:51;;;;;;;0.10;0.10;;;;;;;8.36;100.00;101788.34;4995943;28;20053;-59
2022/01/17 03:41:54;;;;;;;0.20;0.20;;;;;;;8.36;100.00;101791.91;4995701;28;20057;-59
2022/01/17 03:44:58;;;;;;;1.55;0.30;;;;;;;8.41;100.00;101796.22;4996061;28;20049;-59
2022/01/17 03:48:02;;;;;;;3.92;0.98;;;;;;;8.41;100.00;101799.00;4995849;28;20057;-59
2022/01/17 03:51:06;;;;;;;0.63;0.57;;;;;;;8.45;100.00;101791.41;4995775;28;20057;-59
2022/01/17 03:54:09;;;;;;;0.10;0.10;;;;;;;8.44;100.00;101792.63;4995785;28;20061;-60
2022/01/17 03:57:12;;;;;;;0.10;0.10;;;;;;;8.38;100.00;101789.50;4994988;28;20061;-59
2022/01/17 04:00:23;;;;;;;0.40;0.40;;;;;;;8.42;100.00;101792.25;4995184;28;20065;-59
2022/01/17 04:03:27;;;;;;;0.73;0.57;;;;;;;8.47;100.00;101802.13;4995485;28;20045;-59
2022/01/17 04:06:30;;;;;;;0.10;0.10;;;;;;;8.43;100.00;101807.69;5010503;28;20056;-59
2022/01/17 04:09:33;;;;;;;0.38;0.17;;;;;;;8.42;100.00;101805.34;5015300;28;20509;-59
2022/01/17 04:12:37;;;;;;;0.10;0.00;;;;;;;8.50;100.00;101804.06;5015236;28;20068;-59
2022/01/17 04:15:41;;;;;;;0.10;0.10;;;;;;;8.53;100.00;101806.81;5014669;28;20053;-59
2022/01/17 04:18:44;;;;;;;0.38;0.35;;;;;;;8.65;100.00;101809.03;5014880;28;20064;-59
2022/01/17 04:21:48;;;;;;;1.85;0.30;;;;;;;8.68;100.00;101802.66;5014946;28;20049;-59
2022/01/17 04:24:51;;;;;;;0.25;0.17;;;;;;;8.78;100.00;101812.06;5016224;28;20065;-59
2022/01/17 04:27:55;;;;;;;0.10;0.10;;;;;;;8.79;100.00;101814.41;5016097;28;20064;-59
2022/01/17 04:30:59;;;;;;;0.43;0.25;;;;;;;8.85;100.00;101812.75;5014761;28;20394;-59
2022/01/17 04:34:03;;;;;;;0.10;0.10;;;;;;;8.81;100.00;101816.78;5014949;28;20069;-59
2022/01/17 04:37:08;;;;;;;0.15;0.15;;;;;;;8.81;100.00;101817.59;4994922;28;20057;-59
2022/01/17 04:40:12;;;;;;;0.20;0.20;;;;;;;8.83;100.00;101826.28;4995079;28;20053;-59
2022/01/17 04:45:07;;;;;;;1.90;0.57;;;;;;;8.79;100.00;101827.53;4995063;28;20049;-59
2022/01/17 04:46:44;;;;;;;6.18;1.15;;;;;;;8.75;100.00;101833.09;5012408;28;20049;-59
2022/01/17 04:49:47;;;;;;;0.43;0.20;;;;;;;8.81;100.00;101834.25;5014177;28;20056;-59
2022/01/17 04:52:54;;;;;;;0.10;0.10;;;;;;;8.82;100.00;101835.81;5014338;28;20053;-59
2022/01/17 04:55:58;;;;;;;0.32;0.32;;;;;;;8.84;100.00;101835.38;5014292;28;20044;-59
2022/01/17 04:59:01;;;;;;;0.10;0.10;;;;;;;8.86;100.00;101833.78;5014640;28;20053;-59
2022/01/17 05:02:06;;;;;;;1.95;0.20;;;;;;;8.86;100.00;101831.00;5013991;28;20057;-59
2022/01/17 05:05:11;;;;;;;0.55;0.40;;;;;;;8.79;100.00;101839.41;5014291;28;20061;-60
2022/01/17 05:08:15;;;;;;;0.10;0.10;;;;;;;8.65;100.00;101827.69;5013397;28;20049;-59
2022/01/17 05:11:18;;;;;;;0.40;0.40;;;;;;;8.41;100.00;101818.44;5014133;28;20406;-59
2022/01/17 05:14:22;;;;;;;2.05;0.77;;;;;;;8.21;100.00;101834.84;5013768;28;20049;-59
2022/01/17 05:20:42;;;;;;;0.10;0.10;;;;;;;7.90;100.00;101835.16;5013876;28;20057;-59
2022/01/17 05:23:45;;;;;;;0.10;0.10;;;;;;;7.73;100.00;101836.88;5014013;28;20064;-59
2022/01/17 05:26:49;;;;;;;0.20;0.20;;;;;;;7.56;100.00;101827.47;5022510;28;20056;-60
2022/01/17 05:29:52;;;;;;;0.35;0.28;;;;;;;7.40;100.00;101818.09;5033151;28;20509;-60
2022/01/17 05:32:58;;;;;;;0.52;0.40;;;;;;;7.26;100.00;101827.28;5033188;28;20049;-59
2022/01/17 05:36:01;;;;;;;0.75;0.45;;;;;;;7.10;100.00;101846.38;5011642;28;20049;-60
2022/01/17 05:39:05;;;;;;;0.20;0.20;;;;;;;6.99;100.00;101859.50;4993852;28;20065;-60
2022/01/17 05:42:14;;;;;;;0.13;0.13;;;;;;;6.78;100.00;101854.00;4993826;28;20053;-60
2022/01/17 05:45:17;;;;;;;0.10;0.10;;;;;;;6.69;100.00;101850.91;4998332;28;20053;-59
2022/01/17 05:48:21;;;;;;;0.10;0.10;;;;;;;6.48;100.00;101842.63;5013649;28;20053;-59
2022/01/17 05:51:24;;;;;;;0.15;0.15;;;;;;;6.43;100.00;101837.53;5013124;28;20053;-59
2022/01/17 05:54:27;;;;;;;0.13;0.13;;;;;;;6.39;100.00;101842.28;5013428;28;20478;-59
2022/01/17 05:57:31;;;;;;;1.55;0.45;;;;;;;6.29;100.00;101840.31;4993731;28;20065;-59
2022/01/17 06:00:35;;;;;;;4.95;0.30;;;;;;;6.18;100.00;101856.13;4993464;28;20061;-59
2022/01/17 06:03:38;;;;;;;0.10;0.10;;;;;;;6.07;100.00;101864.44;4993483;28;20069;-60
2022/01/17 06:06:42;;;;;;;0.10;0.10;;;;;;;5.98;100.00;101864.84;5010224;28;20113;-59
2022/01/17 06:09:45;;;;;;;0.10;0.10;;;;;;;5.87;100.00;101866.00;5013535;28;20045;-59
2022/01/17 06:12:49;;;;;;;0.25;0.25;;;;;;;5.86;100.00;101862.47;5013050;28;20407;-59
2022/01/17 06:15:52;;;;;;;1.58;0.20;;;;;;;5.92;100.00;101874.72;5022325;28;20048;-59
2022/01/17 06:18:56;;;;;;;0.20;0.20;;;;;;;5.90;100.00;101899.22;5032740;28;20414;-59
2022/01/17 06:21:59;;;;;;;0.20;0.00;;;;;;;5.94;100.00;101905.53;5022619;28;20049;-59
2022/01/17 06:25:03;;;;;;;4.70;0.30;;;;;;;5.91;100.00;101911.84;5012796;28;20044;-59
2022/01/17 06:28:07;;;;;;;11.63;0.70;;;;;;;5.85;100.00;101910.66;4993674;28;20061;-59
2022/01/17 06:31:10;;;;;;;0.13;0.13;;;;;;;6.01;100.00;101911.06;4993037;28;20427;-59
2022/01/17 06:34:14;;;;;;;0.10;0.10;;;;;;;6.13;100.00;101896.03;4993181;28;20057;-59
2022/01/17 06:37:17;;;;;;;2.35;0.50;;;;;;;6.23;100.00;101905.53;4993164;28;20503;-59
2022/01/17 06:40:21;;;;;;;0.65;0.65;;;;;;;6.29;100.00;101909.47;4994501;28;20057;-59
2022/01/17 06:43:24;;;;;;;11.77;1.23;;;;;;;6.27;100.00;101889.72;4996997;28;20163;-59
2022/01/17 06:46:29;;;;;;;0.35;0.35;;;;;;;6.18;100.00;101898.41;5011589;28;20060;-59
2022/01/17 06:49:32;;;;;;;0.10;0.10;;;;;;;6.04;100.00;101904.72;5016795;28;20399;-59
2022/01/17 06:52:35;;;;;;;2.28;0.63;;;;;;;5.97;100.00;101946.22;5016818;28;20060;-59
2022/01/17 06:55:39;;;;;;;6.10;0.82;;;;;;;5.94;100.00;101960.03;5024137;28;20056;-59
2022/01/17 06:58:44;;;;;;;1.10;1.00;;;;;;;5.92;100.00;101959.63;5035433;28;20060;-59
2022/01/17 07:01:48;;;;;;;7.30;1.30;;;;;;;5.82;100.00;101930.78;5035582;28;20052;-59
2022/01/17 07:04:51;;;;;;;4.03;0.63;;;;;;;5.79;100.00;101909.44;5032748;28;20097;-59
2022/01/17 07:07:56;;;;;;;4.95;0.85;;;;;;;5.87;100.00;101911.03;4996659;28;20062;-59
2022/01/17 07:10:59;;;;;;;1.90;0.85;;;;;;;5.82;100.00;101924.44;4996982;28;20049;-59
2022/01/17 07:14:03;;;;;;;2.03;1.00;;;;;;;5.89;100.00;101952.91;4995479;28;20435;-59
2022/01/17 07:17:06;;;;;;;3.88;0.85;;;;;;;5.91;100.00;101955.31;4995616;28;20058;-59
2022/01/17 07:20:10;;;;;;;21.27;1.15;;;;;;;5.87;100.00;101944.22;4995603;28;20053;-59
2022/01/17 07:23:14;;;;;;;0.35;0.30;;;;;;;5.93;100.00;101959.25;4996452;28;20054;-59
2022/01/17 07:26:18;;;;;;;1.52;0.63;;;;;;;5.94;100.00;101977.44;5001123;28;20064;-59
2022/01/17 07:29:21;;;;;;;0.73;0.30;;;;;;;5.99;100.00;101962.41;5016237;28;20052;-59
2022/01/17 07:32:26;;;;;;;1.05;0.70;;;;;;;6.00;100.00;101958.47;5015501;28;20060;-59
2022/01/17 07:35:29;;;;;;;0.30;0.30;;;;;;;6.06;100.00;101951.38;5014576;28;20382;-59
2022/01/17 07:38:36;;;;;;;1.02;1.02;;;;;;;6.06;100.00;101968.75;5015811;28;20057;-59
2022/01/17 07:41:40;;;;;;;1.77;0.35;;;;;;;6.06;100.00;101965.97;5015842;28;20068;-59
2022/01/17 07:44:52;;;;;;;0.95;0.68;;;;;;;6.10;100.00;101957.69;5015270;28;20057;-59
2022/01/17 07:48:08;;;;;;;;;;;;;;;6.13;100.00;101943.88;5016206;28;20378;-59
2022/01/17 07:51:12;;;;;;;8.05;1.38;;;;;;;6.06;100.00;101935.56;5014673;28;19913;-59
2022/01/17 07:54:17;;;;;;;0.30;0.30;;;;;;;5.95;100.00;101962.44;5010700;28;20049;-59
2022/01/17 07:57:22;;;;;;;0.25;0.25;;;;;;;5.90;100.00;101981.38;4995624;28;20057;-59
2022/01/17 08:00:28;;;;;;;0.20;0.20;;;;;;;6.02;100.00;101972.72;4995507;28;20061;-59
2022/01/17 08:03:33;;;;;;;0.20;0.13;;;;;;;6.10;100.00;101964.03;4995602;28;20049;-59
2022/01/17 08:06:39;;;;;;;0.85;0.85;;;;;;;6.10;100.00;101966.78;5027074;28;20390;-59
2022/01/17 08:09:42;;;;;;;0.47;0.30;;;;;;;6.00;100.00;101959.25;5034988;28;20052;-59
2022/01/17 08:12:47;;;;;;;0.40;0.40;;;;;;;5.85;100.00;101965.16;5034978;28;20497;-59
2022/01/17 08:15:50;;;;;;;0.57;0.52;;;;;;;5.69;100.00;101971.03;5015085;28;20130;-59
2022/01/17 08:18:54;;;;;;;0.20;0.20;;;;;;;5.67;100.00;101972.59;4995691;28;20057;-59
2022/01/17 08:22:03;;;;;;;0.20;0.20;;;;;;;5.64;100.00;101963.09;4995584;28;20571;-59
2022/01/17 08:25:06;;;;;;;2.60;1.10;;;;;;;5.63;100.00;101955.97;5009398;28;20057;-59
2022/01/17 08:28:10;;;;;;;0.10;0.10;;;;;;;5.64;100.00;101965.88;4995176;28;20049;-59
2022/01/17 08:31:13;;;;;;;6.32;0.52;;;;;;;5.56;100.00;101980.06;4994931;28;20057;-59
2022/01/17 08:34:17;;;;;;;0.10;0.10;;;;;;;5.45;100.00;101982.78;4994901;28;20069;-59
2022/01/17 08:37:21;;;;;;;1.27;0.50;;;;;;;5.45;100.00;101982.78;4994784;28;20061;-59
2022/01/17 08:40:25;;;;;;;0.20;0.20;;;;;;;5.47;100.00;101985.94;4994850;28;20049;-60
2022/01/17 08:43:29;;;;;;;0.20;0.20;;;;;;;5.42;100.00;101978.03;4994715;28;20045;-59
2022/01/17 08:46:33;;;;;;;10.15;0.77;;;;;;;5.48;100.00;101975.69;5009652;28;20052;-59
2022/01/17 08:49:36;;;;;;;0.38;0.22;;;;;;;5.46;100.00;101981.59;5013825;28;20061;-59
2022/01/17 08:52:39;;;;;;;0.28;0.17;;;;;;;5.47;100.00;101985.94;5014080;28;20052;-60
2022/01/17 08:55:44;;;;;;;1.55;0.60;;;;;;;5.40;100.00;101991.44;4994135;28;20498;-59
2022/01/17 08:58:48;;;;;;;0.57;0.30;;;;;;;5.45;100.00;102004.88;4994663;28;20057;-59
2022/01/17 09:01:51;;;;;;;0.10;0.10;;;;;;;5.50;100.00;101998.97;4994556;28;20510;-59
2022/01/17 09:04:55;;;;;;;1.58;0.68;;;;;;;5.56;100.00;102010.44;4995811;28;20050;-59
2022/01/17 09:07:59;;;;;;;0.57;0.38;;;;;;;5.58;100.00;102031.00;5013930;28;20057;-59
2022/01/17 09:11:03;;;;;;;2.17;1.67;;;;;;;5.69;100.00;102031.03;5014019;28;20057;-59
2022/01/17 09:14:06;;;;;;;0.43;0.43;;;;;;;5.79;100.00;102036.59;5013829;28;20525;-59
2022/01/17 09:17:10;;;;;;;3.08;1.20;;;;;;;5.85;100.00;102037.84;5013824;28;20061;-59
2022/01/17 09:20:14;;;;;;;0.40;0.40;;;;;;;5.96;100.00;102037.84;5012454;28;20057;-59
2022/01/17 09:23:18;;;;;;;13.20;1.08;;;;;;;6.11;100.00;102047.78;5013666;28;20056;-59
2022/01/17 09:26:23;;;;;;;0.63;0.63;;;;;;;6.30;100.00;102054.94;5018781;28;20398;-59
2022/01/17 09:29:26;;;;;;;1.27;0.60;;;;;;;6.43;100.00;102064.47;5033499;28;20060;-59
2022/01/17 09:32:30;;;;;;;13.77;1.17;;;;;;;6.64;100.00;102059.72;5033291;28;20074;-59
2022/01/17 09:35:34;;;;;;;0.10;0.10;;;;;;;6.84;100.00;102054.59;5018747;28;20122;-59
2022/01/17 09:38:38;;;;;;;0.38;0.28;;;;;;;6.91;100.00;102062.09;4993395;28;20403;-60
2022/01/17 09:41:41;;;;;;;0.63;0.40;;;;;;;7.12;100.00;102068.41;4993962;28;20498;-58
2022/01/17 09:44:45;;;;;;;0.10;0.10;;;;;;;7.27;100.00;102064.44;4993484;28;20049;-59
2022/01/17 09:47:48;;;;;;;0.20;0.20;;;;;;;7.36;100.00;102073.09;4993635;28;20069;-59
2022/01/17 09:51:02;;;;;;;0.57;0.28;;;;;;;7.38;100.00;102087.38;4993365;28;20049;-59
2022/01/17 09:54:08;;;;;;;0.10;0.10;;;;;;;7.46;100.00;102100.00;4993723;28;20057;-59
2022/01/17 09:57:14;;;;;;;9.52;0.70;;;;;;;7.60;100.00;102091.66;4993621;28;20065;-60
2022/01/17 10:00:24;;;;;;;1.45;0.20;;;;;;;7.57;100.00;102089.69;4993503;28;20069;-59
2022/01/17 10:03:27;;;;;;;5.88;1.30;;;;;;;7.77;100.00;102092.78;4992259;28;20054;-60
2022/01/17 10:06:31;;;;;;;0.35;0.32;;;;;;;7.99;100.00;102087.94;5022809;28;20052;-59
2022/01/17 10:09:35;;;;;;;8.30;0.57;;;;;;;8.12;100.00;102098.16;5031894;28;20053;-59
2022/01/17 10:12:39;;;;;;;0.35;0.15;;;;;;;8.25;100.00;102095.75;5032837;28;20052;-59
2022/01/17 10:16:00;;;;;;;0.50;0.30;;;;;;;8.31;100.00;102094.94;5015621;28;20399;-60
2022/01/17 10:19:04;;;;;;;1.43;0.37;;;;;;;8.53;100.00;102090.06;4996717;28;20052;-59
2022/01/17 10:22:15;;;;;;;4.88;1.23;;;;;;;8.66;100.00;102093.94;5012899;28;20497;-59
2022/01/17 10:25:49;;;;;;;12.63;1.23;;;;;;;8.74;100.00;102120.44;5012605;28;20053;-59
2022/01/17 10:35:36;;;;;;;0.38;0.10;;;;;;;8.85;100.00;102137.84;5000156;28;20041;-59
2022/01/17 10:38:39;;;;;;;0.65;0.20;;;;;;;8.92;100.00;102117.53;5012067;28;20053;-59
2022/01/17 10:41:43;;;;;;;1.17;0.47;;;;;;;9.02;100.00;102127.75;5012450;28;20073;-59
2022/01/17 10:44:46;;;;;;;0.95;0.65;;;;;;;9.12;100.00;102138.78;5011892;28;20069;-59
2022/01/17 10:47:52;;;;;;;0.75;0.22;;;;;;;9.04;100.00;102165.06;5013094;28;20044;-59
2022/01/17 10:50:56;;;;;;;0.30;0.10;;;;;;;9.10;100.00;102176.53;5012434;28;20501;-59
2022/01/17 10:54:14;;;;;;;0.35;0.35;;;;;;;9.20;100.00;102138.75;5012614;28;20044;-59
2022/01/17 10:57:18;;;;;;;1.05;0.73;;;;;;;9.21;100.00;102168.09;4993111;28;20065;-60
2022/01/17 11:00:23;;;;;;;8.38;0.80;;;;;;;9.24;100.00;102178.41;4992737;28;20061;-59
2022/01/17 11:03:32;;;;;;;8.48;1.05;;;;;;;9.27;100.00;102172.03;4992875;28;20073;-59
2022/01/17 11:06:46;;;;;;;0.25;0.17;;;;;;;9.27;100.00;102163.72;5008738;28;20383;-59
2022/01/17 11:09:50;;;;;;;0.73;0.22;;;;;;;9.28;100.00;102173.63;5011509;28;20395;-59
2022/01/17 11:12:57;;;;;;;0.10;0.10;;;;;;;9.25;100.00;102143.88;5012211;28;20509;-59
2022/01/17 11:16:07;;;;;;;6.30;1.00;;;;;;;9.31;100.00;102145.78;5012278;28;20053;-59
2022/01/17 11:20:03;;;;;;;0.70;0.57;;;;;;;9.33;100.00;102148.16;5012493;28;20061;-59
2022/01/17 11:22:38;;;;;;;3.28;1.30;;;;;;;9.33;100.00;102159.28;5012642;28;20057;-59
2022/01/17 11:25:43;;;;;;;1.00;0.40;;;;;;;9.37;100.00;102154.47;5020042;28;20401;-59
2022/01/17 11:28:49;;;;;;;1.45;0.77;;;;;;;9.42;100.00;102151.25;5016035;28;20053;-59
2022/01/17 11:31:52;;;;;;;1.25;0.77;;;;;;;9.48;100.00;102161.53;5015818;28;20054;-59
2022/01/17 11:34:58;;;;;;;3.85;1.45;;;;;;;9.46;100.00;102157.56;5014902;28;20061;-60
2022/01/17 11:38:03;;;;;;;3.17;1.58;;;;;;;9.51;100.00;102157.09;5015928;28;20053;-59
2022/01/17 11:41:21;;;;;;;8.90;0.75;;;;;;;9.57;100.00;102147.91;5015873;28;20065;-59
2022/01/17 11:44:35;;;;;;;1.13;0.90;;;;;;;9.56;100.00;102157.47;5015696;28;20052;-59
2022/01/17 11:47:50;;;;;;;2.85;0.35;;;;;;;9.52;100.00;102151.16;5015622;28;20641;-59
2022/01/17 11:50:55;;;;;;;1.13;0.38;;;;;;;9.55;100.00;102157.88;5015141;28;20053;-59
2022/01/17 11:54:09;;;;;;;1.08;0.80;;;;;;;9.58;100.00;102155.06;5015375;28;20092;-59
2022/01/17 11:57:21;;;;;;;0.47;0.47;;;;;;;9.54;100.00;102143.19;4995282;28;20411;-59
2022/01/17 12:00:30;;;;;;;9.93;1.40;;;;;;;9.49;100.00;102151.16;4995757;28;20061;-60
2022/01/17 12:03:45;;;;;;;3.85;0.98;;;;;;;9.43;100.00;102136.13;4995572;28;20057;-60
2022/01/17 12:06:59;;;;;;;1.67;0.40;;;;;;;9.44;100.00;102138.50;5012879;28;20045;-58
2022/01/17 12:10:16;;;;;;;8.43;1.20;;;;;;;9.41;100.00;102141.31;5015178;28;20057;-59
2022/01/17 12:13:22;;;;;;;0.52;0.32;;;;;;;9.48;100.00;102144.03;4995361;28;20073;-59
2022/01/17 12:16:29;;;;;;;2.13;0.88;;;;;;;9.54;100.00;102147.94;5009574;28;20044;-59
2022/01/17 12:19:33;;;;;;;0.52;0.52;;;;;;;9.53;100.00;102146.38;5014684;28;20073;-59
2022/01/17 12:22:39;;;;;;;1.98;0.60;;;;;;;9.54;100.00;102154.31;5014904;28;20383;-59
2022/01/17 12:25:42;;;;;;;7.03;1.08;;;;;;;9.55;100.00;102146.75;5022840;28;20406;-59
2022/01/17 12:28:54;;;;;;;1.30;0.50;;;;;;;9.62;100.00;102129.97;5014748;28;20057;-59
2022/01/17 12:31:58;;;;;;;1.45;0.60;;;;;;;9.67;100.00;102121.19;5014572;28;20516;-58
2022/01/17 12:35:04;;;;;;;0.43;0.43;;;;;;;9.75;100.00;102123.47;5014336;28;20060;-59
2022/01/17 12:38:11;;;;;;;9.52;0.80;;;;;;;9.72;100.00;102118.72;5014221;28;20129;-59
2022/01/17 12:41:33;;;;;;;2.35;1.73;;;;;;;9.76;100.00;102096.44;5014568;28;20056;-59
2022/01/17 12:44:43;;;;;;;8.85;1.05;;;;;;;9.79;100.00;102099.16;5013225;28;20053;-59
2022/01/17 12:47:47;;;;;;;16.70;1.52;;;;;;;9.79;100.00;102085.25;4994772;28;20045;-59
2022/01/17 12:50:53;;;;;;;2.67;1.00;;;;;;;9.91;100.00;102090.28;4994338;28;20049;-59
2022/01/17 12:53:58;;;;;;;10.23;0.90;;;;;;;10.01;100.00;102107.25;4994572;28;20065;-59
2022/01/17 12:57:01;;;;;;;2.45;0.98;;;;;;;10.03;100.00;102116.78;5012467;28;20038;-58
2022/01/17 13:00:09;;;;;;;4.25;2.72;;;;;;;9.91;100.00;102122.91;5014148;28;20057;-58
2022/01/17 13:03:14;;;;;;;3.50;2.05;;;;;;;9.87;100.00;102114.56;5013654;28;20053;-58
2022/01/17 13:06:19;;;;;;;2.28;1.00;;;;;;;9.90;100.00;102118.53;5013661;28;20398;-58
2022/01/17 13:09:25;;;;;;;2.58;1.05;;;;;;;9.80;100.00;102102.75;5013611;28;20072;-58
2022/01/17 13:12:29;;;;;;;2.45;1.60;;;;;;;9.72;100.00;102120.72;5013977;28;20057;-59
2022/01/17 13:15:32;;;;;;;14.05;1.75;;;;;;;9.87;100.00;102091.53;5013976;28;20045;-58
2022/01/17 13:18:35;;;;;;;1.48;0.85;;;;;;;9.80;100.00;102077.69;5013945;28;20652;-58
2022/01/17 13:21:40;;;;;;;2.88;0.80;;;;;;;9.81;100.00;102057.78;5013600;28;20060;-59
2022/01/17 13:24:43;;;;;;;2.63;0.65;;;;;;;9.64;100.00;102074.69;5013642;28;20053;-59
2022/01/17 13:27:56;;;;;;;5.03;1.02;;;;;;;9.66;100.00;102078.66;5030675;28;20045;-59
2022/01/17 13:31:00;;;;;;;14.35;1.58;;;;;;;9.63;100.00;102067.56;5033534;28;20056;-58
2022/01/17 13:34:30;;;;;;;0.73;0.63;;;;;;;9.60;100.00;102096.22;5033404;28;20056;-58
2022/01/17 13:37:34;;;;;;;9.75;1.17;;;;;;;9.51;100.00;102087.56;4993873;28;20387;-58
2022/01/17 13:40:38;;;;;;;2.05;1.10;;;;;;;9.38;100.00;102053.16;4993133;28;20407;-55
2022/01/17 13:43:52;;;;;;;1.48;0.88;;;;;;;9.31;100.00;102045.69;4993934;28;20049;-58
2022/01/17 13:46:59;;;;;;;2.47;0.82;;;;;;;9.28;100.00;102052.06;5012083;28;20371;-58
2022/01/17 13:50:03;;;;;;;3.85;1.10;;;;;;;9.18;100.00;102018.81;5012929;28;20057;-58
2022/01/17 13:53:08;;;;;;;5.47;0.90;;;;;;;9.11;100.00;102025.25;5013932;28;20058;-58
2022/01/17 13:56:11;;;;;;;1.30;0.65;;;;;;;9.07;100.00;102033.59;5025436;28;20052;-58
2022/01/17 13:59:16;;;;;;;2.47;1.52;;;;;;;9.08;100.00;102068.53;5033013;28;20049;-54
2022/01/17 14:02:20;;;;;;;11.50;0.65;;;;;;;9.03;100.00;102084.91;5031596;28;20532;-56
2022/01/17 14:05:34;;;;;;;2.25;1.40;;;;;;;8.92;100.00;102100.88;5021172;28;20514;-55
2022/01/17 14:08:43;;;;;;;0.32;0.32;;;;;;;8.76;100.00;102084.72;4992586;28;20057;-55
2022/01/17 14:11:47;;;;;;;1.70;0.88;;;;;;;8.73;100.00;102057.75;4992568;28;20403;-56
2022/01/17 14:14:53;;;;;;;16.00;1.90;;;;;;;8.67;100.00;102017.72;4993054;28;20498;-56
2022/01/17 14:18:11;;;;;;;0.75;0.30;;;;;;;8.73;100.00;102020.84;4992979;28;20049;-55
2022/01/17 14:21:37;;;;;;;0.82;0.70;;;;;;;8.70;100.00;101993.91;4993083;28;20064;-55
2022/01/17 14:24:44;;;;;;;8.38;0.52;;;;;;;8.64;100.00;101996.31;4993307;28;20485;-55
2022/01/17 14:27:57;;;;;;;0.80;0.68;;;;;;;8.64;100.00;101995.53;5027345;28;20044;-59
2022/01/17 14:31:13;;;;;;;1.52;0.55;;;;;;;8.61;100.00;102002.69;5032769;28;20072;-58
2022/01/17 14:34:23;;;;;;;0.73;0.60;;;;;;;8.56;100.00;102017.00;5032714;28;20060;-58
2022/01/17 14:37:32;;;;;;;3.88;1.02;;;;;;;8.52;100.00;102010.69;4992957;28;20067;-58
2022/01/17 14:40:35;;;;;;;7.05;1.05;;;;;;;8.55;100.00;102015.44;4993227;28;20053;-58
2022/01/17 14:43:40;;;;;;;5.25;1.92;;;;;;;8.48;100.00;102020.25;4993084;28;20053;-58